Seattle, Washington
Traffic Map
Current Weather Conditions
Seattle, Washington
Overcast
Overcast
52°
Feels Like: 52°
Wind Chill: 52° Ceiling: 900
Heat Index: 52° Visibility: 10mi
Dew Point: 49° Wind: 3mph
Humidity: 89% Direction: 320° (NW)
Pressure: 30.23in Gusts: 0mph
Raw Report DataKBFI 161653Z 32003KT 10SM OVC009 11/09 A3023 RMK AO2 CIG 007V013 SLP237 T01110094
Traffic Incident Summary
Active as of:
Severity:
Category:
InformationThere was an issue retrieving the traffic information for this location. Please try a different location or try again shortly.
Advertisements